sensor_id;sensor_type;location;lat;lon;timestamp;temperature;humidity
43665;DHT22;29263;48.172;11.484;2022-12-19T00:01:19;-4.00;99.90
43665;DHT22;29263;48.172;11.484;2022-12-19T00:03:51;-4.00;99.90
43665;DHT22;29263;48.172;11.484;2022-12-19T00:06:18;-4.00;99.90
43665;DHT22;29263;48.172;11.484;2022-12-19T00:08:46;-4.00;99.90
43665;DHT22;29263;48.172;11.484;2022-12-19T00:11:13;-3.90;99.90
43665;DHT22;29263;48.172;11.484;2022-12-19T00:13:39;-4.00;99.90
43665;DHT22;29263;48.172;11.484;2022-12-19T00:16:13;-4.00;99.90
43665;DHT22;29263;48.172;11.484;2022-12-19T00:18:40;-4.00;99.90
43665;DHT22;29263;48.172;11.484;2022-12-19T00:21:06;-3.90;99.90
43665;DHT22;29263;48.172;11.484;2022-12-19T00:23:33;-3.90;99.90
43665;DHT22;29263;48.172;11.484;2022-12-19T00:26:09;-3.80;99.90
43665;DHT22;29263;48.172;11.484;2022-12-19T00:28:42;-3.80;99.90
43665;DHT22;29263;48.172;11.484;2022-12-19T00:31:12;-3.80;99.90
43665;DHT22;29263;48.172;11.484;2022-12-19T00:33:38;-3.80;99.90
43665;DHT22;29263;48.172;11.484;2022-12-19T00:36:06;-3.90;99.90
43665;DHT22;29263;48.172;11.484;2022-12-19T00:38:32;-3.90;99.90
43665;DHT22;29263;48.172;11.484;2022-12-19T00:41:08;-3.80;99.90
43665;DHT22;29263;48.172;11.484;2022-12-19T00:43:33;-3.80;99.90
43665;DHT22;29263;48.172;11.484;2022-12-19T00:46:02;-3.80;99.90
43665;DHT22;29263;48.172;11.484;2022-12-19T00:48:29;-3.80;99.90
43665;DHT22;29263;48.172;11.484;2022-12-19T00:51:02;-3.80;99.90
43665;DHT22;29263;48.172;11.484;2022-12-19T00:53:28;-3.80;99.90
43665;DHT22;29263;48.172;11.484;2022-12-19T00:55:53;-3.80;99.90
43665;DHT22;29263;48.172;11.484;2022-12-19T00:58:19;-3.70;99.90
43665;DHT22;29263;48.172;11.484;2022-12-19T01:00:45;-3.70;99.90
43665;DHT22;29263;48.172;11.484;2022-12-19T01:03:10;-3.70;99.90
43665;DHT22;29263;48.172;11.484;2022-12-19T01:05:36;-3.70;99.90
43665;DHT22;29263;48.172;11.484;2022-12-19T01:08:01;-3.80;99.90
43665;DHT22;29263;48.172;11.484;2022-12-19T01:10:27;-3.80;99.90
43665;DHT22;29263;48.172;11.484;2022-12-19T01:12:53;-3.80;99.90
43665;DHT22;29263;48.172;11.484;2022-12-19T01:15:19;-3.70;99.90
43665;DHT22;29263;48.172;11.484;2022-12-19T01:17:46;-3.80;99.90
43665;DHT22;29263;48.172;11.484;2022-12-19T01:20:17;-3.80;99.90
43665;DHT22;29263;48.172;11.484;2022-12-19T01:22:44;-3.80;99.90
43665;DHT22;29263;48.172;11.484;2022-12-19T01:25:10;-3.80;99.90
43665;DHT22;29263;48.172;11.484;2022-12-19T01:27:36;-3.80;99.90
43665;DHT22;29263;48.172;11.484;2022-12-19T01:30:03;-3.80;99.90
43665;DHT22;29263;48.172;11.484;2022-12-19T01:32:29;-3.80;99.90
43665;DHT22;29263;48.172;11.484;2022-12-19T01:34:55;-3.90;99.90
43665;DHT22;29263;48.172;11.484;2022-12-19T01:37:21;-3.90;99.90
43665;DHT22;29263;48.172;11.484;2022-12-19T01:39:47;-3.90;99.90
43665;DHT22;29263;48.172;11.484;2022-12-19T01:42:20;-3.90;99.90
43665;DHT22;29263;48.172;11.484;2022-12-19T01:47:49;-3.80;99.90
43665;DHT22;29263;48.172;11.484;2022-12-19T01:50:28;-3.90;99.90
43665;DHT22;29263;48.172;11.484;2022-12-19T01:52:57;-3.90;99.90
43665;DHT22;29263;48.172;11.484;2022-12-19T01:55:23;-3.90;99.90
43665;DHT22;29263;48.172;11.484;2022-12-19T01:57:49;-3.90;99.90
43665;DHT22;29263;48.172;11.484;2022-12-19T02:00:15;-3.90;99.90
43665;DHT22;29263;48.172;11.484;2022-12-19T02:02:48;-4.00;99.90
43665;DHT22;29263;48.172;11.484;2022-12-19T02:05:17;-4.00;99.90
43665;DHT22;29263;48.172;11.484;2022-12-19T02:07:43;-4.00;99.90
43665;DHT22;29263;48.172;11.484;2022-12-19T02:10:09;-4.00;99.90
43665;DHT22;29263;48.172;11.484;2022-12-19T02:12:41;-4.10;99.90
43665;DHT22;29263;48.172;11.484;2022-12-19T02:15:08;-4.00;99.90
43665;DHT22;29263;48.172;11.484;2022-12-19T02:26:32;-4.20;99.90
43665;DHT22;29263;48.172;11.484;2022-12-19T02:31:33;-4.30;99.90
43665;DHT22;29263;48.172;11.484;2022-12-19T02:34:28;-4.40;99.90
43665;DHT22;29263;48.172;11.484;2022-12-19T02:37:20;-4.40;99.90
43665;DHT22;29263;48.172;11.484;2022-12-19T02:40:13;-4.40;99.90
43665;DHT22;29263;48.172;11.484;2022-12-19T02:42:42;-4.30;99.90
43665;DHT22;29263;48.172;11.484;2022-12-19T02:45:11;-4.30;99.90
43665;DHT22;29263;48.172;11.484;2022-12-19T02:47:38;-4.30;99.90
43665;DHT22;29263;48.172;11.484;2022-12-19T02:50:04;-4.30;99.90
43665;DHT22;29263;48.172;11.484;2022-12-19T02:55:12;-4.30;99.90
43665;DHT22;29263;48.172;11.484;2022-12-19T03:00:49;-4.20;99.90
43665;DHT22;29263;48.172;11.484;2022-12-19T03:03:33;-4.20;99.90
43665;DHT22;29263;48.172;11.484;2022-12-19T03:06:08;-4.20;99.90
43665;DHT22;29263;48.172;11.484;2022-12-19T03:09:00;-4.20;99.90
43665;DHT22;29263;48.172;11.484;2022-12-19T03:11:32;-4.20;99.90
43665;DHT22;29263;48.172;11.484;2022-12-19T03:14:02;-4.20;99.90
43665;DHT22;29263;48.172;11.484;2022-12-19T03:16:32;-4.20;99.90
43665;DHT22;29263;48.172;11.484;2022-12-19T03:18:58;-4.20;99.90
43665;DHT22;29263;48.172;11.484;2022-12-19T03:21:39;-4.30;99.90
43665;DHT22;29263;48.172;11.484;2022-12-19T03:24:07;-4.30;99.90
43665;DHT22;29263;48.172;11.484;2022-12-19T03:26:37;-4.30;99.90
43665;DHT22;29263;48.172;11.484;2022-12-19T03:29:16;-4.20;99.90
43665;DHT22;29263;48.172;11.484;2022-12-19T03:31:45;-4.20;99.90
43665;DHT22;29263;48.172;11.484;2022-12-19T03:36:54;-4.20;99.90
43665;DHT22;29263;48.172;11.484;2022-12-19T03:39:21;-4.20;99.90
43665;DHT22;29263;48.172;11.484;2022-12-19T03:41:48;-4.20;99.90
43665;DHT22;29263;48.172;11.484;2022-12-19T03:44:36;-4.20;99.90
43665;DHT22;29263;48.172;11.484;2022-12-19T03:47:05;-4.20;99.90
43665;DHT22;29263;48.172;11.484;2022-12-19T03:49:32;-4.20;99.90
43665;DHT22;29263;48.172;11.484;2022-12-19T03:54:53;-4.20;99.90
43665;DHT22;29263;48.172;11.484;2022-12-19T03:57:25;-4.10;99.90
43665;DHT22;29263;48.172;11.484;2022-12-19T03:59:58;-4.10;99.90
43665;DHT22;29263;48.172;11.484;2022-12-19T04:02:26;-4.20;99.90
43665;DHT22;29263;48.172;11.484;2022-12-19T04:04:59;-4.10;99.90
43665;DHT22;29263;48.172;11.484;2022-12-19T04:07:25;-4.10;99.90
43665;DHT22;29263;48.172;11.484;2022-12-19T04:09:53;-4.10;99.90
43665;DHT22;29263;48.172;11.484;2022-12-19T04:12:27;-4.00;99.90
43665;DHT22;29263;48.172;11.484;2022-12-19T04:14:54;-4.00;99.90
43665;DHT22;29263;48.172;11.484;2022-12-19T04:17:32;-4.00;99.90
43665;DHT22;29263;48.172;11.484;2022-12-19T04:20:06;-4.00;99.90
43665;DHT22;29263;48.172;11.484;2022-12-19T04:23:44;-4.00;99.90
43665;DHT22;29263;48.172;11.484;2022-12-19T04:25:53;-4.00;99.90
43665;DHT22;29263;48.172;11.484;2022-12-19T04:28:41;-3.90;99.90
43665;DHT22;29263;48.172;11.484;2022-12-19T04:31:11;-3.90;99.90
43665;DHT22;29263;48.172;11.484;2022-12-19T04:33:37;-3.90;99.90
43665;DHT22;29263;48.172;11.484;2022-12-19T04:36:03;-3.80;99.90
43665;DHT22;29263;48.172;11.484;2022-12-19T04:38:29;-3.80;99.90
43665;DHT22;29263;48.172;11.484;2022-12-19T04:40:54;-3.80;99.90
43665;DHT22;29263;48.172;11.484;2022-12-19T04:43:21;-3.80;99.90
43665;DHT22;29263;48.172;11.484;2022-12-19T04:45:46;-3.80;99.90
43665;DHT22;29263;48.172;11.484;2022-12-19T04:48:12;-3.80;99.90
43665;DHT22;29263;48.172;11.484;2022-12-19T04:50:37;-3.70;99.90
43665;DHT22;29263;48.172;11.484;2022-12-19T04:53:03;-3.70;99.90
43665;DHT22;29263;48.172;11.484;2022-12-19T04:55:28;-3.70;99.90
43665;DHT22;29263;48.172;11.484;2022-12-19T04:57:54;-3.60;99.90
43665;DHT22;29263;48.172;11.484;2022-12-19T05:00:20;-3.70;99.90
43665;DHT22;29263;48.172;11.484;2022-12-19T05:02:45;-3.60;99.90
43665;DHT22;29263;48.172;11.484;2022-12-19T05:05:11;-3.60;99.90
43665;DHT22;29263;48.172;11.484;2022-12-19T05:07:36;-3.60;99.90
43665;DHT22;29263;48.172;11.484;2022-12-19T05:10:03;-3.60;99.90
43665;DHT22;29263;48.172;11.484;2022-12-19T05:12:28;-3.60;99.90
43665;DHT22;29263;48.172;11.484;2022-12-19T05:14:54;-3.50;99.90
43665;DHT22;29263;48.172;11.484;2022-12-19T05:17:20;-3.50;99.90
43665;DHT22;29263;48.172;11.484;2022-12-19T05:19:46;-3.50;99.90
43665;DHT22;29263;48.172;11.484;2022-12-19T05:22:11;-3.50;99.90
43665;DHT22;29263;48.172;11.484;2022-12-19T05:24:37;-3.50;99.90
43665;DHT22;29263;48.172;11.484;2022-12-19T05:27:02;-3.40;99.90
43665;DHT22;29263;48.172;11.484;2022-12-19T05:29:28;-3.40;99.90
43665;DHT22;29263;48.172;11.484;2022-12-19T05:31:54;-3.40;99.90
43665;DHT22;29263;48.172;11.484;2022-12-19T05:34:20;-3.40;99.90
43665;DHT22;29263;48.172;11.484;2022-12-19T05:36:45;-3.40;99.90
43665;DHT22;29263;48.172;11.484;2022-12-19T05:39:11;-3.40;99.90
43665;DHT22;29263;48.172;11.484;2022-12-19T05:41:36;-3.30;99.90
43665;DHT22;29263;48.172;11.484;2022-12-19T05:44:02;-3.30;99.90
43665;DHT22;29263;48.172;11.484;2022-12-19T05:46:28;-3.30;99.90
43665;DHT22;29263;48.172;11.484;2022-12-19T05:48:53;-3.40;99.90
43665;DHT22;29263;48.172;11.484;2022-12-19T05:51:38;-3.30;99.90
43665;DHT22;29263;48.172;11.484;2022-12-19T05:54:04;-3.30;99.90
43665;DHT22;29263;48.172;11.484;2022-12-19T05:56:29;-3.30;99.90
43665;DHT22;29263;48.172;11.484;2022-12-19T05:58:55;-3.30;99.90
43665;DHT22;29263;48.172;11.484;2022-12-19T06:01:23;-3.30;99.90
43665;DHT22;29263;48.172;11.484;2022-12-19T06:03:50;-3.30;99.90
43665;DHT22;29263;48.172;11.484;2022-12-19T06:06:18;-3.30;99.90
43665;DHT22;29263;48.172;11.484;2022-12-19T06:08:44;-3.20;99.90
43665;DHT22;29263;48.172;11.484;2022-12-19T06:11:11;-3.20;99.90
43665;DHT22;29263;48.172;11.484;2022-12-19T06:13:37;-3.20;99.90
43665;DHT22;29263;48.172;11.484;2022-12-19T06:16:05;-3.20;99.90
43665;DHT22;29263;48.172;11.484;2022-12-19T06:18:31;-3.20;99.90
43665;DHT22;29263;48.172;11.484;2022-12-19T06:21:00;-3.20;99.90
43665;DHT22;29263;48.172;11.484;2022-12-19T06:23:29;-3.20;99.90
43665;DHT22;29263;48.172;11.484;2022-12-19T06:25:56;-3.10;99.90
43665;DHT22;29263;48.172;11.484;2022-12-19T06:28:22;-3.10;99.90
43665;DHT22;29263;48.172;11.484;2022-12-19T06:30:48;-3.10;99.90
43665;DHT22;29263;48.172;11.484;2022-12-19T06:33:13;-3.00;99.90
43665;DHT22;29263;48.172;11.484;2022-12-19T06:35:39;-3.00;99.90
43665;DHT22;29263;48.172;11.484;2022-12-19T06:38:04;-3.00;99.90
43665;DHT22;29263;48.172;11.484;2022-12-19T06:40:30;-3.00;99.90
43665;DHT22;29263;48.172;11.484;2022-12-19T06:43:14;-3.00;99.90
43665;DHT22;29263;48.172;11.484;2022-12-19T06:45:40;-3.00;99.90
43665;DHT22;29263;48.172;11.484;2022-12-19T06:48:05;-3.00;99.90
43665;DHT22;29263;48.172;11.484;2022-12-19T06:50:31;-3.00;99.90
43665;DHT22;29263;48.172;11.484;2022-12-19T06:52:57;-3.00;99.90
43665;DHT22;29263;48.172;11.484;2022-12-19T06:55:22;-3.00;99.90
43665;DHT22;29263;48.172;11.484;2022-12-19T06:57:48;-3.00;99.90
43665;DHT22;29263;48.172;11.484;2022-12-19T07:00:14;-2.90;99.90
43665;DHT22;29263;48.172;11.484;2022-12-19T07:02:43;-2.90;99.90
43665;DHT22;29263;48.172;11.484;2022-12-19T07:05:10;-2.90;99.90
43665;DHT22;29263;48.172;11.484;2022-12-19T07:07:37;-2.80;99.90
43665;DHT22;29263;48.172;11.484;2022-12-19T07:10:03;-2.80;99.90
43665;DHT22;29263;48.172;11.484;2022-12-19T07:12:30;-2.80;99.90
43665;DHT22;29263;48.172;11.484;2022-12-19T07:14:55;-2.80;99.90
43665;DHT22;29263;48.172;11.484;2022-12-19T07:17:22;-2.80;99.90
43665;DHT22;29263;48.172;11.484;2022-12-19T07:19:55;-2.80;99.90
43665;DHT22;29263;48.172;11.484;2022-12-19T07:22:22;-2.80;99.90
43665;DHT22;29263;48.172;11.484;2022-12-19T07:24:49;-2.70;99.90
43665;DHT22;29263;48.172;11.484;2022-12-19T07:27:14;-2.70;99.90
43665;DHT22;29263;48.172;11.484;2022-12-19T07:29:40;-2.60;99.90
43665;DHT22;29263;48.172;11.484;2022-12-19T07:32:06;-2.60;99.90
43665;DHT22;29263;48.172;11.484;2022-12-19T07:34:31;-2.50;99.90
43665;DHT22;29263;48.172;11.484;2022-12-19T07:36:57;-2.50;99.90
43665;DHT22;29263;48.172;11.484;2022-12-19T07:39:22;-2.40;99.90
43665;DHT22;29263;48.172;11.484;2022-12-19T07:41:48;-2.40;99.90
43665;DHT22;29263;48.172;11.484;2022-12-19T07:44:14;-2.40;99.90
43665;DHT22;29263;48.172;11.484;2022-12-19T07:46:41;-2.30;99.90
43665;DHT22;29263;48.172;11.484;2022-12-19T07:49:07;-2.30;99.90
43665;DHT22;29263;48.172;11.484;2022-12-19T07:51:33;-2.20;99.90
43665;DHT22;29263;48.172;11.484;2022-12-19T07:53:58;-2.20;99.90
43665;DHT22;29263;48.172;11.484;2022-12-19T07:56:24;-2.10;99.90
43665;DHT22;29263;48.172;11.484;2022-12-19T07:58:50;-2.00;99.90
43665;DHT22;29263;48.172;11.484;2022-12-19T08:01:16;-2.00;99.90
43665;DHT22;29263;48.172;11.484;2022-12-19T08:03:42;-1.90;99.90
43665;DHT22;29263;48.172;11.484;2022-12-19T08:06:08;-1.90;99.90
43665;DHT22;29263;48.172;11.484;2022-12-19T08:08:34;-1.80;99.90
43665;DHT22;29263;48.172;11.484;2022-12-19T08:11:09;-1.80;99.90
43665;DHT22;29263;48.172;11.484;2022-12-19T08:13:35;-1.70;99.90
43665;DHT22;29263;48.172;11.484;2022-12-19T08:16:02;-1.60;99.90
43665;DHT22;29263;48.172;11.484;2022-12-19T08:18:31;-1.60;99.90
43665;DHT22;29263;48.172;11.484;2022-12-19T08:20:57;-1.50;99.90
43665;DHT22;29263;48.172;11.484;2022-12-19T08:23:22;-1.40;99.90
43665;DHT22;29263;48.172;11.484;2022-12-19T08:25:48;-1.30;99.90
43665;DHT22;29263;48.172;11.484;2022-12-19T08:28:14;-1.30;99.90
43665;DHT22;29263;48.172;11.484;2022-12-19T08:30:40;-1.20;99.90
43665;DHT22;29263;48.172;11.484;2022-12-19T08:33:06;-1.10;99.90
43665;DHT22;29263;48.172;11.484;2022-12-19T08:35:34;-1.00;99.90
43665;DHT22;29263;48.172;11.484;2022-12-19T08:37:59;-0.90;99.90
43665;DHT22;29263;48.172;11.484;2022-12-19T08:40:25;-0.80;99.90
43665;DHT22;29263;48.172;11.484;2022-12-19T08:42:51;-0.70;99.90
43665;DHT22;29263;48.172;11.484;2022-12-19T08:45:17;-0.60;99.90
43665;DHT22;29263;48.172;11.484;2022-12-19T08:47:43;-0.50;99.90
43665;DHT22;29263;48.172;11.484;2022-12-19T08:50:10;-0.40;99.90
43665;DHT22;29263;48.172;11.484;2022-12-19T08:52:36;-0.30;99.90
43665;DHT22;29263;48.172;11.484;2022-12-19T08:55:01;-0.20;99.90
43665;DHT22;29263;48.172;11.484;2022-12-19T08:57:28;-0.10;99.90
43665;DHT22;29263;48.172;11.484;2022-12-19T08:59:54;-0.10;99.90
43665;DHT22;29263;48.172;11.484;2022-12-19T09:02:19;0.00;99.90
43665;DHT22;29263;48.172;11.484;2022-12-19T09:04:45;0.00;99.90
43665;DHT22;29263;48.172;11.484;2022-12-19T09:07:11;0.10;99.90
43665;DHT22;29263;48.172;11.484;2022-12-19T09:09:37;0.20;99.90
43665;DHT22;29263;48.172;11.484;2022-12-19T09:12:03;0.20;99.90
43665;DHT22;29263;48.172;11.484;2022-12-19T09:14:33;0.20;99.90
43665;DHT22;29263;48.172;11.484;2022-12-19T09:16:59;0.30;99.90
43665;DHT22;29263;48.172;11.484;2022-12-19T09:19:25;0.40;99.90
43665;DHT22;29263;48.172;11.484;2022-12-19T09:21:51;0.50;99.90
43665;DHT22;29263;48.172;11.484;2022-12-19T09:24:16;0.50;99.90
43665;DHT22;29263;48.172;11.484;2022-12-19T09:26:42;0.60;99.90
43665;DHT22;29263;48.172;11.484;2022-12-19T09:29:09;0.60;99.90
43665;DHT22;29263;48.172;11.484;2022-12-19T09:31:34;0.70;99.90
43665;DHT22;29263;48.172;11.484;2022-12-19T09:34:00;0.80;99.90
43665;DHT22;29263;48.172;11.484;2022-12-19T09:36:26;0.80;99.90
43665;DHT22;29263;48.172;11.484;2022-12-19T09:38:56;0.90;99.90
43665;DHT22;29263;48.172;11.484;2022-12-19T09:47:28;1.10;99.90
43665;DHT22;29263;48.172;11.484;2022-12-19T09:49:56;1.10;99.90
43665;DHT22;29263;48.172;11.484;2022-12-19T09:52:32;1.10;99.90
43665;DHT22;29263;48.172;11.484;2022-12-19T10:00:01;1.20;99.90
43665;DHT22;29263;48.172;11.484;2022-12-19T10:02:35;1.20;99.90
43665;DHT22;29263;48.172;11.484;2022-12-19T10:07:46;1.30;99.90
43665;DHT22;29263;48.172;11.484;2022-12-19T10:10:20;1.40;99.90
43665;DHT22;29263;48.172;11.484;2022-12-19T10:18:36;1.60;99.90
43665;DHT22;29263;48.172;11.484;2022-12-19T10:21:14;1.70;99.90
43665;DHT22;29263;48.172;11.484;2022-12-19T10:26:51;1.80;99.90
43665;DHT22;29263;48.172;11.484;2022-12-19T10:32:26;1.90;99.90
43665;DHT22;29263;48.172;11.484;2022-12-19T10:34:54;2.00;99.90
43665;DHT22;29263;48.172;11.484;2022-12-19T10:37:26;2.00;99.90
43665;DHT22;29263;48.172;11.484;2022-12-19T10:40:18;2.00;99.90
43665;DHT22;29263;48.172;11.484;2022-12-19T10:46:01;2.20;99.90
43665;DHT22;29263;48.172;11.484;2022-12-19T10:48:31;2.20;99.90
43665;DHT22;29263;48.172;11.484;2022-12-19T10:50:57;2.20;99.90
43665;DHT22;29263;48.172;11.484;2022-12-19T10:53:28;2.20;99.90
43665;DHT22;29263;48.172;11.484;2022-12-19T10:55:59;2.20;99.90
43665;DHT22;29263;48.172;11.484;2022-12-19T10:58:35;2.30;99.90
43665;DHT22;29263;48.172;11.484;2022-12-19T11:01:22;2.30;99.90
43665;DHT22;29263;48.172;11.484;2022-12-19T11:03:51;2.30;99.90
43665;DHT22;29263;48.172;11.484;2022-12-19T11:09:37;2.30;99.90
43665;DHT22;29263;48.172;11.484;2022-12-19T11:14:34;2.30;99.90
43665;DHT22;29263;48.172;11.484;2022-12-19T11:17:01;2.30;99.90
43665;DHT22;29263;48.172;11.484;2022-12-19T11:19:35;2.30;99.90
43665;DHT22;29263;48.172;11.484;2022-12-19T11:22:15;2.40;99.90
43665;DHT22;29263;48.172;11.484;2022-12-19T11:24:48;2.40;99.90
43665;DHT22;29263;48.172;11.484;2022-12-19T11:27:45;2.40;99.90
43665;DHT22;29263;48.172;11.484;2022-12-19T11:30:20;2.40;99.90
43665;DHT22;29263;48.172;11.484;2022-12-19T11:32:49;2.40;99.90
43665;DHT22;29263;48.172;11.484;2022-12-19T11:35:30;2.50;99.90
43665;DHT22;29263;48.172;11.484;2022-12-19T11:37:58;2.50;99.90
43665;DHT22;29263;48.172;11.484;2022-12-19T11:40:33;2.60;99.90
43665;DHT22;29263;48.172;11.484;2022-12-19T11:45:39;2.70;99.90
43665;DHT22;29263;48.172;11.484;2022-12-19T11:48:35;2.70;99.90
43665;DHT22;29263;48.172;11.484;2022-12-19T11:51:29;2.80;99.90
43665;DHT22;29263;48.172;11.484;2022-12-19T11:54:06;2.70;99.90
43665;DHT22;29263;48.172;11.484;2022-12-19T11:56:35;2.70;99.90
43665;DHT22;29263;48.172;11.484;2022-12-19T11:59:16;2.70;99.90
43665;DHT22;29263;48.172;11.484;2022-12-19T12:05:18;2.70;99.90
43665;DHT22;29263;48.172;11.484;2022-12-19T12:07:56;2.70;99.90
43665;DHT22;29263;48.172;11.484;2022-12-19T12:10:26;2.80;99.90
43665;DHT22;29263;48.172;11.484;2022-12-19T12:13:22;2.80;99.90
43665;DHT22;29263;48.172;11.484;2022-12-19T12:16:02;2.80;99.90
43665;DHT22;29263;48.172;11.484;2022-12-19T12:21:28;2.80;99.90
43665;DHT22;29263;48.172;11.484;2022-12-19T12:24:12;2.80;99.90
43665;DHT22;29263;48.172;11.484;2022-12-19T12:35:33;2.90;99.90
43665;DHT22;29263;48.172;11.484;2022-12-19T12:38:24;2.80;99.90
43665;DHT22;29263;48.172;11.484;2022-12-19T12:43:34;2.80;99.90
43665;DHT22;29263;48.172;11.484;2022-12-19T12:46:04;2.80;99.90
43665;DHT22;29263;48.172;11.484;2022-12-19T12:48:56;2.80;99.90
43665;DHT22;29263;48.172;11.484;2022-12-19T12:51:25;2.80;99.90
43665;DHT22;29263;48.172;11.484;2022-12-19T12:54:07;2.90;99.90
43665;DHT22;29263;48.172;11.484;2022-12-19T12:56:36;2.90;99.90
43665;DHT22;29263;48.172;11.484;2022-12-19T12:59:05;2.90;99.90
43665;DHT22;29263;48.172;11.484;2022-12-19T13:01:35;2.90;99.90
43665;DHT22;29263;48.172;11.484;2022-12-19T13:06:39;3.00;99.90
43665;DHT22;29263;48.172;11.484;2022-12-19T13:11:36;3.00;99.90
43665;DHT22;29263;48.172;11.484;2022-12-19T13:17:01;3.00;99.90
43665;DHT22;29263;48.172;11.484;2022-12-19T13:19:35;3.00;99.90
43665;DHT22;29263;48.172;11.484;2022-12-19T13:24:46;2.90;99.90
43665;DHT22;29263;48.172;11.484;2022-12-19T13:30:01;2.90;99.90
43665;DHT22;29263;48.172;11.484;2022-12-19T13:42:52;2.70;99.90
43665;DHT22;29263;48.172;11.484;2022-12-19T13:45:40;2.80;99.90
43665;DHT22;29263;48.172;11.484;2022-12-19T13:48:15;2.70;99.90
43665;DHT22;29263;48.172;11.484;2022-12-19T13:50:41;2.70;99.90
43665;DHT22;29263;48.172;11.484;2022-12-19T13:53:19;2.70;99.90
43665;DHT22;29263;48.172;11.484;2022-12-19T13:55:46;2.60;99.90
43665;DHT22;29263;48.172;11.484;2022-12-19T14:00:47;2.60;99.90
43665;DHT22;29263;48.172;11.484;2022-12-19T14:03:17;2.60;99.90
43665;DHT22;29263;48.172;11.484;2022-12-19T14:05:45;2.50;99.90
43665;DHT22;29263;48.172;11.484;2022-12-19T14:08:16;2.60;99.90
43665;DHT22;29263;48.172;11.484;2022-12-19T14:10:46;2.50;99.90
43665;DHT22;29263;48.172;11.484;2022-12-19T14:13:19;2.50;99.90
43665;DHT22;29263;48.172;11.484;2022-12-19T14:16:04;2.50;99.90
43665;DHT22;29263;48.172;11.484;2022-12-19T14:18:32;2.40;99.90
43665;DHT22;29263;48.172;11.484;2022-12-19T14:21:16;2.30;99.90
43665;DHT22;29263;48.172;11.484;2022-12-19T14:23:42;2.30;99.90
43665;DHT22;29263;48.172;11.484;2022-12-19T14:26:24;2.20;99.90
43665;DHT22;29263;48.172;11.484;2022-12-19T14:29:23;2.20;99.90
43665;DHT22;29263;48.172;11.484;2022-12-19T14:31:50;2.10;99.90
43665;DHT22;29263;48.172;11.484;2022-12-19T14:34:22;2.10;99.90
43665;DHT22;29263;48.172;11.484;2022-12-19T14:36:56;2.00;99.90
43665;DHT22;29263;48.172;11.484;2022-12-19T14:39:27;2.00;99.90
43665;DHT22;29263;48.172;11.484;2022-12-19T14:42:00;2.00;99.90
43665;DHT22;29263;48.172;11.484;2022-12-19T14:45:39;2.00;99.90
43665;DHT22;29263;48.172;11.484;2022-12-19T14:48:27;1.90;99.90
43665;DHT22;29263;48.172;11.484;2022-12-19T14:51:11;1.90;99.90
43665;DHT22;29263;48.172;11.484;2022-12-19T14:53:38;1.80;99.90
43665;DHT22;29263;48.172;11.484;2022-12-19T14:56:13;1.80;99.90
43665;DHT22;29263;48.172;11.484;2022-12-19T14:58:39;1.70;99.90
43665;DHT22;29263;48.172;11.484;2022-12-19T15:01:26;1.70;99.90
43665;DHT22;29263;48.172;11.484;2022-12-19T15:04:01;1.60;99.90
43665;DHT22;29263;48.172;11.484;2022-12-19T15:06:29;1.60;99.90
43665;DHT22;29263;48.172;11.484;2022-12-19T15:09:04;1.70;99.90
43665;DHT22;29263;48.172;11.484;2022-12-19T15:11:42;1.80;99.90
43665;DHT22;29263;48.172;11.484;2022-12-19T15:14:31;1.70;99.90
43665;DHT22;29263;48.172;11.484;2022-12-19T15:17:02;1.50;99.90
43665;DHT22;29263;48.172;11.484;2022-12-19T15:19:28;1.40;99.90
43665;DHT22;29263;48.172;11.484;2022-12-19T15:21:54;1.30;99.90
43665;DHT22;29263;48.172;11.484;2022-12-19T15:24:19;1.30;99.90
43665;DHT22;29263;48.172;11.484;2022-12-19T15:26:46;1.30;99.90
43665;DHT22;29263;48.172;11.484;2022-12-19T15:29:12;1.20;99.90
43665;DHT22;29263;48.172;11.484;2022-12-19T15:31:40;1.20;99.90
43665;DHT22;29263;48.172;11.484;2022-12-19T15:36:38;1.10;99.90
43665;DHT22;29263;48.172;11.484;2022-12-19T15:39:03;1.10;99.90
43665;DHT22;29263;48.172;11.484;2022-12-19T15:41:29;1.10;99.90
43665;DHT22;29263;48.172;11.484;2022-12-19T15:43:56;1.10;99.90
43665;DHT22;29263;48.172;11.484;2022-12-19T15:46:27;1.10;99.90
43665;DHT22;29263;48.172;11.484;2022-12-19T15:48:54;1.10;99.90
43665;DHT22;29263;48.172;11.484;2022-12-19T15:51:19;1.20;99.90
43665;DHT22;29263;48.172;11.484;2022-12-19T15:53:45;1.10;99.90
43665;DHT22;29263;48.172;11.484;2022-12-19T15:56:26;1.10;99.90
43665;DHT22;29263;48.172;11.484;2022-12-19T15:58:53;1.00;99.90
43665;DHT22;29263;48.172;11.484;2022-12-19T16:01:20;1.10;99.90
43665;DHT22;29263;48.172;11.484;2022-12-19T16:03:46;1.10;99.90
43665;DHT22;29263;48.172;11.484;2022-12-19T16:06:13;1.00;99.90
43665;DHT22;29263;48.172;11.484;2022-12-19T16:08:39;1.00;99.90
43665;DHT22;29263;48.172;11.484;2022-12-19T16:11:05;1.00;99.90
43665;DHT22;29263;48.172;11.484;2022-12-19T16:13:32;1.00;99.90
43665;DHT22;29263;48.172;11.484;2022-12-19T16:15:59;1.00;99.90
43665;DHT22;29263;48.172;11.484;2022-12-19T16:18:25;1.00;99.90
43665;DHT22;29263;48.172;11.484;2022-12-19T16:20:51;1.00;99.90
43665;DHT22;29263;48.172;11.484;2022-12-19T16:23:17;1.00;99.90
43665;DHT22;29263;48.172;11.484;2022-12-19T16:25:45;0.90;99.90
43665;DHT22;29263;48.172;11.484;2022-12-19T16:30:48;1.00;99.90
43665;DHT22;29263;48.172;11.484;2022-12-19T16:33:22;1.00;99.90
43665;DHT22;29263;48.172;11.484;2022-12-19T16:35:49;1.00;99.90
43665;DHT22;29263;48.172;11.484;2022-12-19T16:38:15;0.90;99.90
43665;DHT22;29263;48.172;11.484;2022-12-19T16:40:41;0.90;99.90
43665;DHT22;29263;48.172;11.484;2022-12-19T16:43:16;1.00;99.90
43665;DHT22;29263;48.172;11.484;2022-12-19T16:45:43;0.90;99.90
43665;DHT22;29263;48.172;11.484;2022-12-19T16:48:24;0.90;99.90
43665;DHT22;29263;48.172;11.484;2022-12-19T16:50:50;0.90;99.90
43665;DHT22;29263;48.172;11.484;2022-12-19T16:53:16;0.90;99.90
43665;DHT22;29263;48.172;11.484;2022-12-19T16:55:43;0.90;99.90
43665;DHT22;29263;48.172;11.484;2022-12-19T16:58:22;0.80;99.90
43665;DHT22;29263;48.172;11.484;2022-12-19T17:00:49;0.80;99.90
43665;DHT22;29263;48.172;11.484;2022-12-19T17:03:37;0.80;99.90
43665;DHT22;29263;48.172;11.484;2022-12-19T17:06:15;0.80;99.90
43665;DHT22;29263;48.172;11.484;2022-12-19T17:08:41;0.80;99.90
43665;DHT22;29263;48.172;11.484;2022-12-19T17:11:15;0.80;99.90
43665;DHT22;29263;48.172;11.484;2022-12-19T17:13:43;0.80;99.90
43665;DHT22;29263;48.172;11.484;2022-12-19T17:16:10;0.80;99.90
43665;DHT22;29263;48.172;11.484;2022-12-19T17:18:39;0.80;99.90
43665;DHT22;29263;48.172;11.484;2022-12-19T17:21:06;0.80;99.90
43665;DHT22;29263;48.172;11.484;2022-12-19T17:23:31;0.70;99.90
43665;DHT22;29263;48.172;11.484;2022-12-19T17:25:57;0.80;99.90
43665;DHT22;29263;48.172;11.484;2022-12-19T17:28:25;0.70;99.90
43665;DHT22;29263;48.172;11.484;2022-12-19T17:30:56;0.70;99.90
43665;DHT22;29263;48.172;11.484;2022-12-19T17:33:26;0.70;99.90